Time;durP1;ratioP1;P1;durP2;ratioP2;P2;SDS_P1;SDS_P2;PMS_P1;PMS_P2;Temp;Humidity;BMP_temperature;BMP_pressure;BME280_temperature;BME280_humidity;BME280_pressure;Samples;Min_cycle;Max_cycle;Signal;HPM_P1;HPM_P2
2023/09/04 00:01:23;;;;;;;3.83;1.90;;;15.40;99.90;;;;;;5134716;27;20039;-40
2023/09/04 00:03:49;;;;;;;3.30;1.58;;;15.40;99.90;;;;;;5116193;27;20125;-40
2023/09/04 00:06:14;;;;;;;2.67;1.23;;;15.40;99.90;;;;;;5134588;27;20082;-40
2023/09/04 00:08:40;;;;;;;2.38;1.08;;;15.40;99.90;;;;;;5134586;28;20494;-40
2023/09/04 00:11:06;;;;;;;1.98;1.00;;;15.40;99.90;;;;;;5134416;28;20051;-40
2023/09/04 00:13:31;;;;;;;2.40;1.00;;;15.40;99.90;;;;;;5134984;28;20039;-40
2023/09/04 00:15:57;;;;;;;1.90;1.00;;;15.40;99.90;;;;;;5134456;28;20114;-40
2023/09/04 00:18:24;;;;;;;2.88;1.20;;;15.40;99.90;;;;;;5134587;28;20514;-40
2023/09/04 00:20:52;;;;;;;2.25;1.08;;;15.30;99.90;;;;;;5116192;28;20438;-40
2023/09/04 00:23:18;;;;;;;2.70;1.23;;;15.20;99.90;;;;;;5134138;28;20043;-40
2023/09/04 00:25:44;;;;;;;2.05;1.08;;;15.20;99.90;;;;;;5134190;28;20495;-40
2023/09/04 00:28:09;;;;;;;2.88;1.15;;;15.20;99.90;;;;;;5134594;27;20043;-40
2023/09/04 00:30:35;;;;;;;2.95;1.25;;;15.10;99.90;;;;;;5138288;27;20088;-40
2023/09/04 00:33:01;;;;;;;2.88;1.33;;;15.10;99.90;;;;;;5138622;27;20050;-40
2023/09/04 00:35:26;;;;;;;4.10;1.58;;;15.10;99.90;;;;;;5138807;27;20043;-40
2023/09/04 00:37:52;;;;;;;2.30;1.10;;;15.00;99.90;;;;;;5138395;27;20386;-42
2023/09/04 00:40:18;;;;;;;2.33;1.07;;;15.00;99.90;;;;;;5138230;27;20288;-40
2023/09/04 00:42:43;;;;;;;3.35;1.30;;;15.00;99.90;;;;;;5120221;27;20042;-40
2023/09/04 00:45:11;;;;;;;4.43;1.70;;;15.00;99.90;;;;;;5138642;27;20118;-40
2023/09/04 00:47:47;;;;;;;4.28;1.83;;;14.90;99.90;;;;;;5138471;27;20107;-40
2023/09/04 00:50:19;;;;;;;4.53;1.80;;;14.90;99.90;;;;;;5138328;27;20051;-40
2023/09/04 00:52:45;;;;;;;3.60;1.70;;;14.80;99.90;;;;;;5137928;27;20039;-40
2023/09/04 00:55:11;;;;;;;4.00;2.10;;;14.80;99.90;;;;;;5138210;27;20161;-39
2023/09/04 00:57:38;;;;;;;4.80;2.20;;;14.70;99.90;;;;;;5138142;27;20391;-40
2023/09/04 01:00:10;;;;;;;3.85;2.00;;;14.70;99.90;;;;;;5138028;27;20152;-40
2023/09/04 01:02:37;;;;;;;4.18;1.42;;;14.60;99.90;;;;;;5138006;27;20039;-39
2023/09/04 01:05:04;;;;;;;3.10;1.55;;;14.60;99.90;;;;;;5137612;27;20083;-40
2023/09/04 01:07:30;;;;;;;2.50;1.27;;;14.60;99.90;;;;;;5137808;27;20047;-40
2023/09/04 01:09:56;;;;;;;;;;;14.60;99.90;;;;;;5138276;27;20100;-40
2023/09/04 01:12:24;;;;;;;2.83;1.30;;;14.50;99.90;;;;;;5137828;27;19923;-40
2023/09/04 01:14:55;;;;;;;4.13;1.90;;;14.50;99.90;;;;;;5119322;27;20047;-40
2023/09/04 01:17:21;;;;;;;2.63;1.33;;;14.50;99.90;;;;;;5137594;27;20047;-40
2023/09/04 01:19:47;;;;;;;2.40;1.20;;;14.40;99.90;;;;;;5137432;27;20099;-40
2023/09/04 01:22:13;;;;;;;2.33;1.10;;;14.40;99.90;;;;;;5137689;27;20058;-40
2023/09/04 01:24:39;;;;;;;2.13;1.05;;;14.40;99.90;;;;;;5137716;27;20039;-40
2023/09/04 01:27:22;;;;;;;2.47;1.10;;;14.40;99.90;;;;;;5137548;27;20399;-40
2023/09/04 01:30:01;;;;;;;3.45;1.30;;;14.50;99.90;;;;;;5137584;27;20054;-40
2023/09/04 01:32:54;;;;;;;2.05;1.05;;;14.40;99.90;;;;;;5119820;27;20138;-40
2023/09/04 01:35:22;;;;;;;2.08;1.08;;;14.30;99.90;;;;;;5137431;27;20039;-40
2023/09/04 01:37:48;;;;;;;1.60;0.88;;;14.30;99.90;;;;;;5137317;27;20117;-39
2023/09/04 01:40:14;;;;;;;1.83;1.02;;;14.20;99.90;;;;;;5137397;27;20078;-39
2023/09/04 01:42:40;;;;;;;1.88;1.00;;;14.20;99.90;;;;;;5136933;27;20063;-39
2023/09/04 01:45:06;;;;;;;2.93;1.13;;;14.20;99.90;;;;;;5118978;27;20560;-40
2023/09/04 01:47:32;;;;;;;2.55;1.10;;;14.20;99.90;;;;;;5137207;27;20313;-40
2023/09/04 01:49:57;;;;;;;2.90;1.27;;;14.20;99.90;;;;;;5137171;27;20531;-40
2023/09/04 01:52:23;;;;;;;2.33;0.97;;;14.20;99.90;;;;;;5137022;27;20372;-40
2023/09/04 01:54:49;;;;;;;2.28;1.10;;;14.20;99.90;;;;;;5136970;27;20051;-40
2023/09/04 01:57:16;;;;;;;1.57;0.87;;;14.20;99.90;;;;;;5136842;27;20050;-40
2023/09/04 01:59:42;;;;;;;1.85;0.80;;;14.20;99.90;;;;;;5118803;27;20170;-39
2023/09/04 02:02:07;;;;;;;2.58;0.82;;;14.20;99.90;;;;;;5136974;27;20056;-39
2023/09/04 02:04:34;;;;;;;1.03;0.60;;;14.10;99.90;;;;;;5136796;27;20471;-40
2023/09/04 02:07:00;;;;;;;1.33;0.70;;;14.10;99.90;;;;;;5136717;27;20683;-40
2023/09/04 02:09:26;;;;;;;1.75;0.80;;;14.00;99.90;;;;;;5136793;27;20055;-39
2023/09/04 02:11:52;;;;;;;2.03;1.00;;;14.00;99.90;;;;;;5136553;27;20091;-40
2023/09/04 02:14:17;;;;;;;2.03;1.00;;;14.00;99.90;;;;;;5136435;27;20042;-39
2023/09/04 02:16:43;;;;;;;2.83;1.20;;;14.00;99.90;;;;;;5137243;27;20425;-39
2023/09/04 02:19:09;;;;;;;2.13;0.98;;;14.00;99.90;;;;;;5136869;27;20654;-40
2023/09/04 02:21:35;;;;;;;1.70;0.93;;;14.00;99.90;;;;;;5136436;27;20047;-39
2023/09/04 02:24:01;;;;;;;1.87;0.80;;;14.00;99.90;;;;;;5136279;27;20039;-39
2023/09/04 02:26:27;;;;;;;1.15;0.52;;;13.90;99.90;;;;;;5136325;27;20277;-40
2023/09/04 02:28:53;;;;;;;1.40;0.60;;;13.90;99.90;;;;;;5136454;27;20043;-40
2023/09/04 02:31:18;;;;;;;1.85;0.60;;;13.90;99.90;;;;;;5118158;27;20046;-39
2023/09/04 02:33:44;;;;;;;1.30;0.70;;;14.00;99.90;;;;;;5118224;27;20051;-39
2023/09/04 02:36:10;;;;;;;2.35;0.80;;;14.00;99.90;;;;;;5136412;27;20288;-39
2023/09/04 02:38:36;;;;;;;1.95;0.90;;;14.00;99.90;;;;;;5117959;27;20047;-39
2023/09/04 02:41:01;;;;;;;2.07;0.70;;;13.90;99.90;;;;;;5135960;27;20047;-40
2023/09/04 02:43:27;;;;;;;1.90;0.83;;;13.90;99.90;;;;;;5136380;27;20047;-40
2023/09/04 02:45:52;;;;;;;1.73;0.80;;;13.90;99.90;;;;;;5136083;27;20130;-39
2023/09/04 02:48:18;;;;;;;1.30;0.70;;;13.90;99.90;;;;;;5135982;27;20085;-39
2023/09/04 02:50:44;;;;;;;2.75;1.30;;;14.00;99.90;;;;;;5136087;27;20047;-39
2023/09/04 02:53:10;;;;;;;3.07;1.00;;;13.90;99.90;;;;;;5135331;27;20039;-39
2023/09/04 02:55:35;;;;;;;2.60;1.33;;;13.80;99.90;;;;;;5135689;27;20074;-40
2023/09/04 02:58:01;;;;;;;1.67;0.87;;;13.80;99.90;;;;;;5136667;27;20047;-39
2023/09/04 03:00:27;;;;;;;1.57;0.83;;;13.80;99.90;;;;;;5135834;27;20043;-40
2023/09/04 03:02:52;;;;;;;2.43;1.07;;;13.80;99.90;;;;;;5135774;27;20303;-39
2023/09/04 03:05:18;;;;;;;2.70;1.10;;;13.80;99.90;;;;;;5135566;27;20487;-39
2023/09/04 03:07:44;;;;;;;2.90;1.20;;;13.80;99.90;;;;;;5135581;27;20284;-39
2023/09/04 03:10:10;;;;;;;3.00;1.00;;;13.70;99.90;;;;;;5135415;27;20131;-40
2023/09/04 03:12:35;;;;;;;1.83;0.80;;;13.70;99.90;;;;;;5135626;27;20050;-39
2023/09/04 03:15:03;;;;;;;2.53;1.20;;;13.70;99.90;;;;;;5135197;27;20047;-40
2023/09/04 03:17:31;;;;;;;2.63;1.10;;;13.60;99.90;;;;;;5135339;27;20290;-40
2023/09/04 03:19:58;;;;;;;2.65;1.00;;;13.70;99.90;;;;;;5135395;27;20391;-39
2023/09/04 03:22:24;;;;;;;1.92;0.80;;;13.60;99.90;;;;;;5135318;27;20047;-39
2023/09/04 03:24:51;;;;;;;4.65;1.42;;;13.60;99.90;;;;;;5135062;27;20077;-39
2023/09/04 03:27:17;;;;;;;2.13;0.82;;;13.60;99.90;;;;;;5135026;27;20450;-39
2023/09/04 03:29:43;;;;;;;2.33;0.93;;;13.60;99.90;;;;;;5135234;27;20071;-39
2023/09/04 03:32:09;;;;;;;2.20;0.80;;;13.60;99.90;;;;;;5135016;27;20055;-39
2023/09/04 03:34:34;;;;;;;2.75;0.73;;;13.60;99.90;;;;;;5135138;27;20046;-39
2023/09/04 03:37:00;;;;;;;2.07;0.90;;;13.60;99.90;;;;;;5135079;27;20483;-39
2023/09/04 03:39:26;;;;;;;1.87;0.80;;;13.60;99.90;;;;;;5134854;27;20430;-40
2023/09/04 03:41:52;;;;;;;1.30;0.60;;;13.60;99.90;;;;;;5134744;27;20561;-39
2023/09/04 03:44:18;;;;;;;1.75;0.77;;;13.60;99.90;;;;;;5134956;27;20050;-39
2023/09/04 03:46:43;;;;;;;2.00;0.85;;;13.60;99.90;;;;;;5116951;27;20479;-39
2023/09/04 03:49:09;;;;;;;1.70;0.70;;;13.60;99.90;;;;;;5135040;27;20104;-39
2023/09/04 03:51:35;;;;;;;2.75;0.63;;;13.60;99.90;;;;;;5134891;27;20047;-39
2023/09/04 03:54:04;;;;;;;2.00;0.85;;;13.60;99.90;;;;;;5134597;27;20039;-40
2023/09/04 03:56:30;;;;;;;1.70;0.80;;;13.60;99.90;;;;;;5134824;27;20119;-39
2023/09/04 03:58:57;;;;;;;2.20;0.80;;;13.60;99.90;;;;;;5134812;27;20043;-40
2023/09/04 04:01:23;;;;;;;2.45;1.10;;;13.60;99.90;;;;;;5134673;27;20047;-39
2023/09/04 04:03:50;;;;;;;1.75;0.75;;;13.60;99.90;;;;;;5134109;27;20118;-39
2023/09/04 04:06:15;;;;;;;;;;;13.60;99.90;;;;;;5135091;27;20180;-39
2023/09/04 04:08:41;;;;;;;2.83;1.15;;;13.60;99.90;;;;;;5134536;27;19972;-39
2023/09/04 04:11:07;;;;;;;3.03;1.33;;;13.60;99.90;;;;;;5134560;28;20100;-39
2023/09/04 04:13:33;;;;;;;3.53;1.50;;;13.50;99.90;;;;;;5134988;28;20273;-39
2023/09/04 04:15:59;;;;;;;2.65;1.30;;;13.50;99.90;;;;;;5134635;28;20043;-40
2023/09/04 04:18:26;;;;;;;2.15;0.98;;;13.50;99.90;;;;;;5134449;28;20175;-40
2023/09/04 04:20:55;;;;;;;1.45;0.60;;;13.50;99.90;;;;;;5134419;28;20054;-39
2023/09/04 04:23:21;;;;;;;0.88;0.60;;;13.40;99.90;;;;;;5134202;28;20092;-39
2023/09/04 04:25:50;;;;;;;1.58;0.70;;;13.40;99.90;;;;;;5134490;28;20039;-39
2023/09/04 04:28:18;;;;;;;2.10;0.80;;;13.30;99.90;;;;;;5134458;28;20130;-39
2023/09/04 04:30:44;;;;;;;1.70;0.75;;;13.30;99.90;;;;;;5134374;28;20162;-39
2023/09/04 04:33:10;;;;;;;1.27;0.52;;;13.20;99.90;;;;;;5134309;28;20063;-39
2023/09/04 04:35:35;;;;;;;1.38;0.55;;;13.20;99.90;;;;;;5134283;28;20039;-39
2023/09/04 04:38:01;;;;;;;0.77;0.40;;;13.10;99.90;;;;;;5134038;28;20058;-40
2023/09/04 04:40:27;;;;;;;0.70;0.40;;;13.10;99.90;;;;;;5134647;28;20129;-39
2023/09/04 04:42:53;;;;;;;2.08;0.82;;;13.00;99.90;;;;;;5134250;28;20146;-39
2023/09/04 04:45:18;;;;;;;2.88;0.60;;;13.00;99.90;;;;;;5134566;28;20043;-40
2023/09/04 04:47:44;;;;;;;2.07;0.80;;;12.90;99.90;;;;;;5134239;28;20489;-39
2023/09/04 04:50:10;;;;;;;2.17;0.80;;;12.90;99.90;;;;;;5115793;28;20054;-39
2023/09/04 04:52:36;;;;;;;1.80;0.60;;;12.90;99.90;;;;;;5134013;28;20092;-39
2023/09/04 04:55:02;;;;;;;2.23;0.80;;;12.90;99.90;;;;;;5116345;28;20093;-40
2023/09/04 04:57:28;;;;;;;2.65;1.00;;;12.90;99.90;;;;;;5134235;28;20308;-39
2023/09/04 04:59:53;;;;;;;2.63;1.05;;;12.80;99.90;;;;;;5134213;28;20050;-39
2023/09/04 05:02:21;;;;;;;1.52;0.63;;;12.80;99.90;;;;;;5134107;28;20047;-39
2023/09/04 05:04:47;;;;;;;2.03;0.82;;;12.80;99.90;;;;;;5134017;28;20043;-39
2023/09/04 05:07:15;;;;;;;1.50;0.73;;;12.80;99.90;;;;;;5134661;28;20061;-40
2023/09/04 05:09:41;;;;;;;1.48;0.70;;;12.80;99.90;;;;;;5134481;28;20096;-39
2023/09/04 05:12:07;;;;;;;1.30;0.70;;;12.80;99.90;;;;;;5134114;28;20488;-39
2023/09/04 05:14:33;;;;;;;1.90;0.70;;;12.70;99.90;;;;;;5115852;27;20055;-39
2023/09/04 05:16:59;;;;;;;1.15;0.52;;;12.80;99.90;;;;;;5137634;27;20096;-40
2023/09/04 05:19:25;;;;;;;2.27;1.03;;;12.80;99.90;;;;;;5137693;27;20040;-40
2023/09/04 05:21:51;;;;;;;1.23;0.77;;;12.80;99.90;;;;;;5137451;27;20469;-40
2023/09/04 05:24:17;;;;;;;2.28;1.02;;;12.80;99.90;;;;;;5137606;27;20772;-40
2023/09/04 05:26:42;;;;;;;2.57;1.20;;;12.80;99.90;;;;;;5137643;27;20084;-40
2023/09/04 05:29:08;;;;;;;2.53;1.20;;;12.80;99.90;;;;;;5137536;27;20107;-40
2023/09/04 05:31:33;;;;;;;3.73;1.90;;;12.90;99.90;;;;;;5119333;27;20114;-40
2023/09/04 05:33:59;;;;;;;4.50;1.93;;;13.00;99.90;;;;;;5137332;27;20031;-40
2023/09/04 05:36:25;;;;;;;4.73;2.23;;;13.00;99.90;;;;;;5137147;27;20039;-40
2023/09/04 05:38:50;;;;;;;4.93;2.43;;;13.00;99.90;;;;;;5137411;27;20066;-39
2023/09/04 05:41:16;;;;;;;5.20;2.60;;;13.10;99.90;;;;;;5137347;27;20445;-40
2023/09/04 05:43:42;;;;;;;4.53;2.10;;;13.10;99.90;;;;;;5137245;27;20495;-40
2023/09/04 05:46:07;;;;;;;4.63;2.30;;;13.20;99.90;;;;;;5137237;27;20162;-41
2023/09/04 05:48:34;;;;;;;4.47;2.30;;;13.20;99.90;;;;;;5137075;27;20111;-40
2023/09/04 05:51:01;;;;;;;;;;;13.30;99.90;;;;;;5137352;27;20058;-41
2023/09/04 05:53:26;;;;;;;4.77;2.40;;;13.40;99.90;;;;;;5137126;27;19919;-40
2023/09/04 05:56:13;;;;;;;4.53;2.10;;;13.40;99.90;;;;;;5137117;27;20050;-41
2023/09/04 05:58:46;;;;;;;4.10;2.00;;;13.40;99.90;;;;;;5137191;27;20065;-40
2023/09/04 06:01:12;;;;;;;4.15;1.95;;;13.40;99.90;;;;;;5136859;27;20054;-40
2023/09/04 06:03:39;;;;;;;3.70;1.67;;;13.50;99.90;;;;;;5118371;27;20039;-40
2023/09/04 06:06:06;;;;;;;4.45;2.03;;;13.60;99.90;;;;;;5136615;27;20532;-40
2023/09/04 06:08:33;;;;;;;4.07;2.15;;;13.60;99.90;;;;;;5136708;27;20530;-41
2023/09/04 06:11:00;;;;;;;4.60;2.60;;;13.70;99.90;;;;;;5136627;27;20487;-41
2023/09/04 06:13:26;;;;;;;4.60;2.53;;;13.80;99.90;;;;;;5136629;27;20047;-41
2023/09/04 06:15:51;;;;;;;5.68;2.80;;;13.80;99.90;;;;;;5136554;27;20047;-41
2023/09/04 06:18:19;;;;;;;6.55;3.50;;;13.90;99.90;;;;;;5137015;27;20559;-41
2023/09/04 06:20:47;;;;;;;6.63;3.65;;;14.00;99.90;;;;;;5118307;27;20039;-41
2023/09/04 06:23:13;;;;;;;6.95;3.60;;;14.10;99.90;;;;;;5136409;27;20126;-41
2023/09/04 06:25:41;;;;;;;7.70;3.95;;;14.20;99.90;;;;;;5136483;27;20169;-41
2023/09/04 06:28:08;;;;;;;9.25;4.53;;;14.30;99.90;;;;;;5135540;27;20051;-41
2023/09/04 06:30:34;;;;;;;7.18;4.45;;;14.50;99.90;;;;;;5136253;27;20130;-41
2023/09/04 06:33:00;;;;;;;9.75;5.43;;;14.70;99.90;;;;;;5136351;27;20126;-40
2023/09/04 06:35:26;;;;;;;8.88;4.97;;;14.90;99.90;;;;;;5136230;27;20101;-41
2023/09/04 06:37:52;;;;;;;9.10;5.43;;;15.00;99.90;;;;;;5117830;27;20043;-41
2023/09/04 06:40:17;;;;;;;9.65;4.70;;;15.10;99.90;;;;;;5136146;27;20129;-40
2023/09/04 06:42:43;;;;;;;10.10;5.53;;;15.10;99.90;;;;;;5136061;27;20403;-40
2023/09/04 06:45:09;;;;;;;11.23;5.05;;;15.20;99.90;;;;;;5135591;27;20078;-41
2023/09/04 06:47:35;;;;;;;11.65;5.57;;;15.30;99.90;;;;;;5135980;27;20079;-40
2023/09/04 06:50:01;;;;;;;10.77;6.13;;;15.30;99.90;;;;;;5136037;27;20515;-40
2023/09/04 06:52:27;;;;;;;11.80;6.82;;;15.30;99.90;;;;;;5135908;27;20047;-40
2023/09/04 06:54:52;;;;;;;10.88;5.82;;;15.40;99.90;;;;;;5135758;27;20074;-40
2023/09/04 06:57:18;;;;;;;12.07;6.43;;;15.50;99.90;;;;;;5135774;27;20043;-40
2023/09/04 06:59:44;;;;;;;12.88;7.25;;;15.60;99.90;;;;;;5117573;27;20047;-41
2023/09/04 07:02:10;;;;;;;14.07;6.85;;;15.70;99.90;;;;;;5135486;27;20076;-41
2023/09/04 07:04:36;;;;;;;11.75;6.65;;;15.70;99.90;;;;;;5135588;27;20074;-40
2023/09/04 07:07:02;;;;;;;11.65;6.07;;;15.80;99.90;;;;;;5135393;27;20138;-40
2023/09/04 07:09:27;;;;;;;11.50;7.00;;;15.80;99.90;;;;;;5135917;27;20043;-40
2023/09/04 07:11:53;;;;;;;12.70;6.40;;;15.80;99.90;;;;;;5117285;27;20047;-41
2023/09/04 07:14:19;;;;;;;15.52;8.05;;;15.90;99.90;;;;;;5135431;27;20269;-41
2023/09/04 07:16:44;;;;;;;14.93;7.03;;;15.90;99.90;;;;;;5135686;27;20407;-41
2023/09/04 07:19:10;;;;;;;11.90;6.53;;;15.90;99.90;;;;;;5135801;27;20629;-41
2023/09/04 07:21:36;;;;;;;11.93;6.82;;;15.90;99.90;;;;;;5117149;27;20481;-41
2023/09/04 07:24:03;;;;;;;11.65;6.65;;;16.00;99.90;;;;;;5135390;27;20035;-41
2023/09/04 07:26:29;;;;;;;9.57;5.82;;;16.00;99.90;;;;;;5135327;27;20086;-40
2023/09/04 07:28:55;;;;;;;10.10;5.80;;;16.10;99.90;;;;;;5134998;27;20488;-40
2023/09/04 07:31:21;;;;;;;10.13;5.80;;;16.20;99.90;;;;;;5135257;27;20050;-40
2023/09/04 07:33:48;;;;;;;11.77;5.63;;;16.20;99.90;;;;;;5134937;27;20368;-41
2023/09/04 07:36:14;;;;;;;10.55;5.18;;;16.30;99.90;;;;;;5135039;27;20130;-41
2023/09/04 07:38:41;;;;;;;12.50;6.25;;;16.30;99.90;;;;;;5134961;27;20472;-40
2023/09/04 07:41:07;;;;;;;12.23;7.10;;;16.40;99.90;;;;;;5134943;27;20047;-40
2023/09/04 07:43:33;;;;;;;22.23;12.15;;;16.40;99.90;;;;;;5134632;27;20035;-41
2023/09/04 07:46:00;;;;;;;11.00;6.75;;;16.40;99.90;;;;;;5134939;27;20139;-40
2023/09/04 07:48:26;;;;;;;10.45;5.68;;;16.50;99.90;;;;;;5135094;27;20122;-41
2023/09/04 07:50:52;;;;;;;;;;;16.50;99.90;;;;;;5135127;27;20517;-41
2023/09/04 07:53:21;;;;;;;7.63;4.05;;;16.50;99.90;;;;;;5134792;27;19971;-40
2023/09/04 07:55:47;;;;;;;8.45;4.70;;;16.60;99.90;;;;;;5134711;27;20039;-41
2023/09/04 07:58:13;;;;;;;7.88;4.68;;;16.60;99.90;;;;;;5134617;27;20047;-41
2023/09/04 08:00:47;;;;;;;7.32;3.97;;;16.60;99.90;;;;;;5134797;27;20043;-41
2023/09/04 08:03:13;;;;;;;7.70;4.70;;;16.70;99.90;;;;;;5134818;27;20126;-41
2023/09/04 08:05:39;;;;;;;7.45;4.47;;;16.70;99.90;;;;;;5134657;27;20392;-41
2023/09/04 08:08:09;;;;;;;8.05;4.35;;;16.80;99.90;;;;;;5134615;27;20055;-40
2023/09/04 08:10:39;;;;;;;8.30;4.88;;;16.80;99.90;;;;;;5134601;27;20089;-40
2023/09/04 08:13:11;;;;;;;7.20;4.50;;;16.90;99.90;;;;;;5134697;27;20491;-40
2023/09/04 08:15:37;;;;;;;7.88;4.90;;;16.90;99.90;;;;;;5116486;28;20043;-40
2023/09/04 08:18:03;;;;;;;7.57;4.28;;;16.90;99.90;;;;;;5134499;28;20047;-40
2023/09/04 08:20:28;;;;;;;7.07;3.75;;;17.00;99.90;;;;;;5134427;28;20039;-40
2023/09/04 08:22:54;;;;;;;6.43;3.95;;;17.10;99.90;;;;;;5134367;28;20481;-40
2023/09/04 08:25:20;;;;;;;6.45;3.20;;;17.10;99.90;;;;;;5134419;28;20407;-40
2023/09/04 08:27:45;;;;;;;5.68;3.25;;;17.20;99.90;;;;;;5134478;28;20054;-40
2023/09/04 08:30:11;;;;;;;5.85;3.30;;;17.20;99.90;;;;;;5134417;28;20050;-40
2023/09/04 08:32:37;;;;;;;6.07;3.15;;;17.30;99.90;;;;;;5134666;28;20045;-40
2023/09/04 08:35:04;;;;;;;8.25;3.47;;;17.30;99.90;;;;;;5134138;28;20384;-40
2023/09/04 08:37:29;;;;;;;7.28;4.35;;;17.40;99.90;;;;;;5134408;28;20047;-40
2023/09/04 08:39:55;;;;;;;8.77;3.80;;;17.40;99.90;;;;;;5098861;28;20053;-40
2023/09/04 08:42:21;;;;;;;5.05;2.90;;;17.50;99.90;;;;;;5134314;28;20101;-40
2023/09/04 08:44:49;;;;;;;5.60;2.88;;;17.60;99.90;;;;;;5134268;28;20043;-40
2023/09/04 08:47:15;;;;;;;6.47;3.00;;;17.60;99.90;;;;;;5134206;28;20047;-40
2023/09/04 08:49:43;;;;;;;6.35;2.92;;;17.70;99.90;;;;;;5134252;27;20079;-40
2023/09/04 08:52:08;;;;;;;5.85;3.17;;;17.70;99.90;;;;;;5138135;27;20496;-40
2023/09/04 08:54:34;;;;;;;4.97;2.63;;;17.70;99.90;;;;;;5138073;27;20046;-40
2023/09/04 08:57:00;;;;;;;10.68;3.08;;;17.80;99.90;;;;;;5138225;27;20079;-40
2023/09/04 08:59:26;;;;;;;6.15;3.15;;;17.80;99.90;;;;;;5138395;27;20066;-40
2023/09/04 09:01:56;;;;;;;5.65;3.30;;;17.90;99.90;;;;;;5138421;27;20047;-40
2023/09/04 09:04:22;;;;;;;4.57;2.33;;;17.90;99.90;;;;;;5137922;27;20047;-40
2023/09/04 09:06:50;;;;;;;7.15;2.85;;;18.00;99.90;;;;;;5137920;27;20452;-40
2023/09/04 09:09:16;;;;;;;5.10;2.70;;;18.10;99.90;;;;;;5137923;27;20054;-40
2023/09/04 09:11:42;;;;;;;4.70;2.35;;;18.10;99.90;;;;;;5137920;27;20596;-40
2023/09/04 09:14:08;;;;;;;;;;;18.10;99.90;;;;;;5138336;27;20122;-40
2023/09/04 09:16:34;;;;;;;5.03;2.60;;;18.20;99.90;;;;;;5119732;27;19966;-40
2023/09/04 09:19:01;;;;;;;6.60;2.63;;;18.20;99.90;;;;;;5137738;27;20050;-40
2023/09/04 09:21:28;;;;;;;6.88;2.40;;;18.30;99.90;;;;;;5137577;27;20050;-40
2023/09/04 09:24:16;;;;;;;4.72;2.35;;;18.40;99.90;;;;;;5137590;27;20043;-40
2023/09/04 09:26:44;;;;;;;4.90;2.20;;;18.40;99.90;;;;;;5137649;27;20051;-40
2023/09/04 09:29:12;;;;;;;44.53;7.75;;;18.50;99.90;;;;;;5137433;27;20507;-40
2023/09/04 09:31:39;;;;;;;24.45;6.22;;;18.60;99.90;;;;;;5137436;27;20174;-40
2023/09/04 09:34:05;;;;;;;5.68;1.98;;;18.60;99.90;;;;;;5137429;27;20122;-41
2023/09/04 09:36:31;;;;;;;6.18;2.20;;;18.80;99.90;;;;;;5137336;27;20591;-40
2023/09/04 09:38:57;;;;;;;7.68;2.55;;;18.80;99.90;;;;;;5137416;27;20047;-40
2023/09/04 09:41:23;;;;;;;3.25;1.70;;;18.90;99.90;;;;;;5137336;27;20047;-40
2023/09/04 09:43:49;;;;;;;;;;;18.90;99.90;;;;;;5137576;27;20122;-41
2023/09/04 09:46:18;;;;;;;3.40;1.30;;;19.00;99.90;;;;;;5137310;27;19963;-41
2023/09/04 09:48:45;;;;;;;2.83;1.42;;;19.10;99.90;;;;;;5119006;27;20502;-41
2023/09/04 09:51:11;;;;;;;3.97;2.10;;;19.10;99.90;;;;;;5137220;27;20376;-40
2023/09/04 09:53:50;;;;;;;4.75;1.63;;;19.20;99.90;;;;;;5137279;27;20050;-40
2023/09/04 09:56:18;;;;;;;3.15;1.88;;;19.30;99.90;;;;;;5137154;27;20507;-41
2023/09/04 09:58:47;;;;;;;4.43;1.73;;;19.30;99.90;;;;;;5137078;27;20054;-41
2023/09/04 10:01:13;;;;;;;2.90;1.40;;;19.40;99.90;;;;;;5136137;27;20050;-41
2023/09/04 10:03:39;;;;;;;3.75;1.90;;;19.40;99.90;;;;;;5136155;27;20047;-41
2023/09/04 10:06:08;;;;;;;3.70;1.73;;;19.50;99.90;;;;;;5136813;27;20062;-40
2023/09/04 10:08:42;;;;;;;4.10;2.17;;;19.60;99.90;;;;;;5136990;27;20050;-40
2023/09/04 10:11:11;;;;;;;3.90;1.77;;;19.70;99.90;;;;;;5136906;27;20039;-40
2023/09/04 10:13:44;;;;;;;5.25;2.40;;;19.70;99.90;;;;;;5136823;27;20537;-40
2023/09/04 10:16:14;;;;;;;5.30;1.98;;;19.90;99.90;;;;;;5136542;27;20085;-41
2023/09/04 10:18:44;;;;;;;6.47;2.97;;;19.90;99.90;;;;;;5136729;27;20047;-40
2023/09/04 10:21:14;;;;;;;18.70;10.15;;;20.00;99.90;;;;;;5136480;27;20053;-41
2023/09/04 10:23:47;;;;;;;7.13;3.30;;;20.10;99.90;;;;;;5136628;27;20446;-41
2023/09/04 10:26:27;;;;;;;4.70;2.13;;;20.20;99.90;;;;;;5101227;27;20085;-41
2023/09/04 10:29:04;;;;;;;6.03;2.75;;;20.30;99.90;;;;;;5136491;27;20050;-41
2023/09/04 10:31:33;;;;;;;4.75;2.58;;;20.50;99.90;;;;;;5152741;27;20559;-40
2023/09/04 10:34:00;;;;;;;5.43;3.17;;;20.60;99.90;;;;;;5136204;27;20484;-41
2023/09/04 10:36:29;;;;;;;4.88;2.42;;;20.70;99.90;;;;;;5136237;27;20618;-41
2023/09/04 10:38:55;;;;;;;3.80;2.50;;;20.80;99.90;;;;;;5136009;27;20050;-41
2023/09/04 10:41:21;;;;;;;3.83;2.20;;;21.00;99.90;;;;;;5118110;27;20533;-41
2023/09/04 10:43:46;;;;;;;;;;;21.10;99.90;;;;;;5136556;27;20159;-41
2023/09/04 10:46:13;;;;;;;4.63;2.22;;;21.30;99.90;;;;;;5136157;27;19939;-41
2023/09/04 10:48:46;;;;;;;4.90;2.10;;;21.50;99.90;;;;;;5136041;27;20444;-41
2023/09/04 10:51:35;;;;;;;4.40;2.58;;;21.70;99.90;;;;;;5135897;27;20046;-41
2023/09/04 10:54:22;;;;;;;3.72;1.88;;;21.90;99.90;;;;;;5136065;27;20084;-41
2023/09/04 10:56:57;;;;;;;3.47;2.10;;;22.10;99.90;;;;;;5124746;27;20090;-41
2023/09/04 10:59:23;;;;;;;4.22;1.80;;;22.30;99.90;;;;;;5135867;27;20389;-41
2023/09/04 11:01:50;;;;;;;4.97;2.00;;;22.50;99.90;;;;;;5135721;27;20058;-41
2023/09/04 11:04:35;;;;;;;;;;;22.60;99.90;;;;;;5136514;27;20099;-41
2023/09/04 11:07:19;;;;;;;2.97;1.52;;;22.70;99.90;;;;;;5124375;27;19923;-41
2023/09/04 11:09:51;;;;;;;3.72;1.70;;;22.90;99.90;;;;;;5135453;27;20112;-41
2023/09/04 11:12:22;;;;;;;5.78;2.00;;;23.10;99.90;;;;;;5135293;27;20099;-38
2023/09/04 11:14:51;;;;;;;4.53;1.90;;;23.20;99.90;;;;;;5135249;27;20054;-41
2023/09/04 11:17:21;;;;;;;5.40;1.63;;;23.40;99.90;;;;;;5135518;27;20442;-41
2023/09/04 11:19:50;;;;;;;5.72;1.40;;;23.40;99.90;;;;;;5135409;27;20043;-41
2023/09/04 11:22:19;;;;;;;2.40;1.30;;;23.50;99.90;;;;;;5135390;27;20043;-40
2023/09/04 11:24:46;;;;;;;2.95;1.20;;;23.70;99.90;;;;;;5134897;27;20483;-41
2023/09/04 11:27:11;;;;;;;5.13;1.80;;;23.80;99.90;;;;;;5135235;27;20472;-41
2023/09/04 11:29:37;;;;;;;3.00;1.70;;;23.90;99.90;;;;;;5135166;27;20042;-41
2023/09/04 11:32:05;;;;;;;6.03;1.92;;;24.00;99.90;;;;;;5135411;27;20043;-41
2023/09/04 11:34:31;;;;;;;3.60;1.80;;;24.00;99.90;;;;;;5135085;27;20050;-41
2023/09/04 11:36:57;;;;;;;;;;;24.10;99.90;;;;;;5135291;27;20039;-41
2023/09/04 11:39:22;;;;;;;4.03;1.38;;;24.20;99.90;;;;;;5134843;27;19920;-41
2023/09/04 11:41:49;;;;;;;8.45;1.73;;;24.30;99.90;;;;;;5135590;27;20120;-41
2023/09/04 11:44:15;;;;;;;11.80;2.35;;;24.40;99.90;;;;;;5135361;27;20043;-41
2023/09/04 11:46:42;;;;;;;;;;;24.40;99.90;;;;;;5135413;27;20058;-41
2023/09/04 11:49:08;;;;;;;10.32;1.95;;;24.50;99.90;;;;;;5134869;27;19925;-41
2023/09/04 11:51:35;;;;;;;;;;;24.50;99.90;;;;;;5135331;27;20082;-41
2023/09/04 11:54:04;;;;;;;3.92;1.20;;;24.50;99.90;;;;;;5134678;27;20399;-41
2023/09/04 11:56:30;;;;;;;4.13;1.30;;;24.50;99.90;;;;;;5134940;27;20093;-41
2023/09/04 11:58:56;;;;;;;;;;;24.40;99.90;;;;;;5135164;27;20035;-41
2023/09/04 12:01:22;;;;;;;4.55;1.15;;;24.40;99.90;;;;;;5134671;27;19919;-41
2023/09/04 12:03:49;;;;;;;;;;;24.40;99.90;;;;;;5135063;27;20095;-42
2023/09/04 12:06:15;;;;;;;2.85;1.13;;;24.40;99.90;;;;;;5134290;27;20056;-41
2023/09/04 12:08:40;;;;;;;5.18;1.20;;;24.40;99.90;;;;;;5134477;27;20112;-41
2023/09/04 12:11:07;;;;;;;2.83;1.35;;;24.40;99.90;;;;;;5116384;28;20429;-41
2023/09/04 12:13:33;;;;;;;3.53;1.08;;;24.40;99.90;;;;;;5134652;27;20045;-41
2023/09/04 12:16:06;;;;;;;;;;;24.40;99.90;;;;;;5135009;27;20126;-41
2023/09/04 12:18:35;;;;;;;10.93;1.75;;;24.40;99.90;;;;;;5116503;28;19948;-41
2023/09/04 12:21:05;;;;;;;2.85;1.20;;;24.40;99.90;;;;;;5134370;28;20419;-41
2023/09/04 12:23:44;;;;;;;2.05;0.90;;;24.40;99.90;;;;;;5134461;28;20047;-41
2023/09/04 12:26:13;;;;;;;3.22;1.10;;;24.50;99.90;;;;;;5137786;27;20503;-41
2023/09/04 12:28:40;;;;;;;2.33;1.10;;;24.50;99.90;;;;;;5138744;27;20057;-41
2023/09/04 12:31:08;;;;;;;3.42;1.30;;;24.50;99.90;;;;;;5138652;27;20134;-42
2023/09/04 12:33:38;;;;;;;1.77;0.93;;;24.60;99.90;;;;;;5138627;27;20046;-41
2023/09/04 12:36:06;;;;;;;1.65;0.73;;;24.60;99.90;;;;;;5138612;27;20050;-41
2023/09/04 12:38:32;;;;;;;1.40;0.80;;;24.60;99.90;;;;;;5138585;27;20039;-41
2023/09/04 12:40:57;;;;;;;;;;;24.60;99.90;;;;;;5138947;27;20047;-40
2023/09/04 12:43:23;;;;;;;3.03;0.88;;;24.60;99.90;;;;;;5138450;27;19974;-41
2023/09/04 12:45:49;;;;;;;;;;;24.60;99.90;;;;;;5138826;27;20047;-41
2023/09/04 12:48:15;;;;;;;1.77;0.80;;;24.60;99.90;;;;;;5138272;27;19919;-41
2023/09/04 12:50:41;;;;;;;1.88;1.00;;;24.50;99.90;;;;;;5138353;27;20054;-41